Portada
METAR-TAF:

METAR-TAF

Aeroports :

Hyderabad, Índia

latitud: 17-27N, longitud: 078-28E, altitud: 530 m

Observació

L'informe es va fer fa 3 hores i 27 minuts, a les 16:00 UTC
Vent 5 kt del Est/Sud-Est
Temperatura 28°C
Humitat 58%
Pressió 1016 hPa
Visibilitat: 6000 m

METAR: VOHY 181600Z 12005KT 6000 NSC 28/19 Q1016 NOSIG

Hora: 00:57 (19:27 UTC)

Pronòstic

L'informe es va fer fa 8 hores i 27 minuts, a les 11:00 UTC
Pronòstic vàlid del 18 a les 12 UTC al 18 a les 21 UTC
Vent 6 kt del Est/Sud-Est
Visibilitat: 6000 m

TAF: VOHY 181100Z 1812/1821 12006KT 6000 NSC

Observacions i pronòstics meteorològics de més de 4000 aeroports (METAR i TAF).

Les estacions disponibles són els punts grocs i vermells al mapa.

Posi el ratolí al punt desitjat per veure el nom de l'estació.

Feu clic per veure les observacions i els pronòstics meteorològics.

Per canviar el mapa: feu clic els botons verds amb una creu de color negre per apropar; al botó verd amb un guió per allunyar la imatge; o en les fletxes verdes per a mapes adjacents.


METAR-TAF: